Time;durP1;ratioP1;P1;durP2;ratioP2;P2;SDS_P1;SDS_P2;PMS_P1;PMS_P2;Temp;Humidity;BMP_temperature;BMP_pressure;BME280_temperature;BME280_humidity;BME280_pressure;Samples;Min_cycle;Max_cycle;Signal;HPM_P1;HPM_P2
2022/11/22 00:01:59;;;;;;;21.90;5.55;;;;;;;5.53;100.00;99070.81;4922728;29;20040;-76
2022/11/22 00:04:24;;;;;;;18.33;6.93;;;;;;;5.57;100.00;99069.63;4908941;29;20040;-75
2022/11/22 00:06:50;;;;;;;18.13;5.80;;;;;;;5.54;100.00;99062.75;4910393;29;20103;-74
2022/11/22 00:09:15;;;;;;;15.95;4.38;;;;;;;5.56;100.00;99055.56;4924850;23;20073;-75
2022/11/22 00:11:40;;;;;;;13.75;4.60;;;;;;;5.63;100.00;99048.06;4874141;29;20048;-75
2022/11/22 00:14:06;;;;;;;14.57;5.72;;;;;;;5.66;100.00;99055.75;4891139;29;20047;-74
2022/11/22 00:16:33;;;;;;;9.73;5.25;;;;;;;5.63;100.00;99056.81;4890882;29;20036;-75
2022/11/22 00:18:59;;;;;;;19.13;6.43;;;;;;;5.60;100.00;99051.75;4889376;29;20482;-74
2022/11/22 00:21:24;;;;;;;13.77;4.78;;;;;;;5.62;100.00;99056.91;4890390;29;20099;-75
2022/11/22 00:23:56;;;;;;;24.67;5.75;;;;;;;5.63;100.00;99061.28;4890178;29;20048;-75
2022/11/22 00:26:23;;;;;;;16.02;5.97;;;;;;;5.61;100.00;99068.44;4889662;29;20040;-76
2022/11/22 00:28:48;;;;;;;15.18;5.47;;;;;;;5.57;100.00;99066.97;4889858;29;20047;-75
2022/11/22 00:31:14;;;;;;;30.27;7.32;;;;;;;5.59;100.00;99065.94;4889556;29;20040;-75
2022/11/22 00:33:39;;;;;;;18.58;5.97;;;;;;;5.57;100.00;99069.63;4889513;29;20219;-75
2022/11/22 00:36:05;;;;;;;21.15;6.85;;;;;;;5.63;100.00;99069.19;4889496;29;20135;-76
2022/11/22 00:38:30;;;;;;;19.40;6.35;;;;;;;5.62;100.00;99068.38;4888070;29;20051;-74
2022/11/22 00:40:56;;;;;;;17.77;7.13;;;;;;;5.62;100.00;99072.78;4889570;29;20040;-75
2022/11/22 00:43:21;;;;;;;22.73;7.57;;;;;;;5.67;100.00;99068.00;4889480;29;20067;-76
2022/11/22 00:45:47;;;;;;;26.27;6.20;;;;;;;5.61;100.00;99073.75;4889582;29;20047;-76
2022/11/22 00:48:12;;;;;;;17.40;6.55;;;;;;;5.60;100.00;99058.84;4889389;29;20081;-76
2022/11/22 00:50:38;;;;;;;18.45;6.45;;;;;;;5.57;100.00;99061.69;4872119;29;20040;-74
2022/11/22 00:53:03;;;;;;;18.70;7.40;;;;;;;5.58;100.00;99072.19;4889093;29;20120;-75
2022/11/22 00:55:29;;;;;;;23.85;7.18;;;;;;;5.61;100.00;99064.00;4887615;29;20079;-75
2022/11/22 00:57:54;;;;;;;23.67;6.88;;;;;;;5.62;100.00;99067.50;4888383;29;20039;-76
2022/11/22 01:00:20;;;;;;;23.65;7.22;;;;;;;5.64;100.00;99068.25;4888747;29;20036;-74
2022/11/22 01:02:45;;;;;;;14.85;7.43;;;;;;;5.62;100.00;99070.13;4888554;29;20857;-75
2022/11/22 01:05:11;;;;;;;24.73;7.57;;;;;;;5.66;100.00;99068.97;4868163;29;20052;-75
2022/11/22 01:07:36;;;;;;;20.15;7.07;;;;;;;5.64;100.00;99066.44;4884512;29;20045;-75
2022/11/22 01:10:02;;;;;;;26.63;7.50;;;;;;;5.61;100.00;99065.81;4888434;29;20036;-75
2022/11/22 01:12:27;;;;;;;18.05;7.50;;;;;;;5.68;100.00;99075.00;4888422;29;20068;-75
2022/11/22 01:14:53;;;;;;;13.55;7.78;;;;;;;5.67;100.00;99074.16;4888831;29;20040;-76
2022/11/22 01:17:18;;;;;;;20.10;7.63;;;;;;;5.68;100.00;99086.44;4896377;29;20052;-75
2022/11/22 01:19:44;;;;;;;25.63;7.78;;;;;;;5.67;100.00;99076.81;4887261;29;20131;-75
2022/11/22 01:22:10;;;;;;;24.52;7.85;;;;;;;5.70;100.00;99078.38;4887121;29;20072;-75
2022/11/22 01:24:35;;;;;;;20.00;7.97;;;;;;;5.71;100.00;99074.75;4887013;29;20087;-75
2022/11/22 01:27:01;;;;;;;20.30;7.70;;;;;;;5.70;100.00;99076.56;4888666;29;20083;-75
2022/11/22 01:29:26;;;;;;;23.52;8.90;;;;;;;5.70;100.00;99081.84;4888815;29;20040;-75
2022/11/22 01:31:52;;;;;;;24.95;8.57;;;;;;;5.68;100.00;99075.00;4888576;29;20029;-76
2022/11/22 01:34:17;;;;;;;31.88;8.45;;;;;;;5.67;100.00;99082.09;4890580;29;20048;-76
2022/11/22 01:36:42;;;;;;;22.27;8.52;;;;;;;5.76;100.00;99077.09;4886163;29;20052;-74
2022/11/22 01:39:08;;;;;;;22.55;7.78;;;;;;;5.70;100.00;99073.94;4880118;29;20047;-75
2022/11/22 01:41:33;;;;;;;25.85;10.18;;;;;;;5.80;100.00;99073.28;4888639;29;20048;-76
2022/11/22 01:44:25;;;;;;;32.78;9.75;;;;;;;5.78;100.00;99065.47;4888977;29;20024;-75
2022/11/22 01:47:05;;;;;;;33.65;8.55;;;;;;;5.76;100.00;99058.56;4883268;29;20105;-76
2022/11/22 01:49:59;;;;;;;22.00;9.40;;;;;;;5.78;100.00;99061.97;4887803;29;20040;-75
2022/11/22 01:52:27;;;;;;;25.90;9.48;;;;;;;5.76;100.00;99056.78;4887785;29;20438;-74
2022/11/22 01:54:59;;;;;;;27.92;8.98;;;;;;;5.71;100.00;99058.91;4887894;29;20049;-75
2022/11/22 01:57:31;;;;;;;31.13;10.43;;;;;;;5.67;100.00;99066.22;4886094;29;20055;-75
2022/11/22 02:00:02;;;;;;;32.40;11.18;;;;;;;5.55;100.00;99067.09;4885923;29;20111;-76
2022/11/22 02:02:33;;;;;;;23.70;9.90;;;;;;;5.52;100.00;99067.28;4887388;29;20605;-75
2022/11/22 02:05:02;;;;;;;23.25;10.18;;;;;;;5.42;100.00;99075.06;4869692;29;20043;-75
2022/11/22 02:07:51;;;;;;;29.02;10.45;;;;;;;5.23;100.00;99079.94;4888815;29;20032;-76
2022/11/22 02:10:19;;;;;;;24.92;9.95;;;;;;;5.22;100.00;99085.31;4887065;29;20517;-75
2022/11/22 02:12:45;;;;;;;29.13;9.73;;;;;;;5.17;100.00;99089.16;4883699;29;20748;-75
2022/11/22 02:15:11;;;;;;;26.10;10.60;;;;;;;5.08;100.00;99084.50;4887823;29;20048;-75
2022/11/22 02:17:36;;;;;;;23.67;10.40;;;;;;;5.10;100.00;99085.22;4885324;29;20036;-75
2022/11/22 02:20:03;;;;;;;35.10;10.57;;;;;;;5.09;100.00;99082.69;4887387;29;20044;-75
2022/11/22 02:22:39;;;;;;;31.38;11.48;;;;;;;5.00;100.00;99085.97;4887955;29;20044;-76
2022/11/22 02:25:32;;;;;;;30.70;11.32;;;;;;;4.98;100.00;99088.72;4882350;29;20037;-74
2022/11/22 02:27:58;;;;;;;34.53;10.27;;;;;;;4.97;100.00;99089.69;4880022;29;20053;-76
2022/11/22 02:30:23;;;;;;;25.63;10.07;;;;;;;4.99;100.00;99097.50;4887334;29;20036;-76
2022/11/22 02:32:49;;;;;;;24.63;10.18;;;;;;;4.89;100.00;99102.56;4885582;29;20033;-75
2022/11/22 02:35:20;;;;;;;24.75;8.88;;;;;;;4.96;100.00;99100.31;4887107;29;20528;-75
2022/11/22 02:37:48;;;;;;;24.23;9.65;;;;;;;5.02;100.00;99100.78;4885479;29;20149;-75
2022/11/22 02:40:15;;;;;;;20.67;8.98;;;;;;;5.12;100.00;99093.03;4887062;29;20092;-75
2022/11/22 02:42:49;;;;;;;27.33;10.25;;;;;;;5.14;100.00;99089.34;4886932;29;20056;-75
2022/11/22 02:45:14;;;;;;;31.60;11.20;;;;;;;5.19;100.00;99094.31;4883918;29;20524;-76
2022/11/22 02:47:40;;;;;;;21.73;8.70;;;;;;;5.18;100.00;99087.34;4874531;29;20038;-75
2022/11/22 02:50:05;;;;;;;25.17;9.90;;;;;;;5.24;100.00;99089.56;4887266;29;20671;-75
2022/11/22 02:52:31;;;;;;;38.05;11.25;;;;;;;5.21;100.00;99084.47;4887372;29;20466;-75
2022/11/22 02:54:57;;;;;;;30.58;11.65;;;;;;;5.23;100.00;99090.50;4874614;29;20096;-75
2022/11/22 02:57:25;;;;;;;33.45;11.20;;;;;;;5.30;100.00;99085.63;4885268;29;20693;-76
2022/11/22 02:59:50;;;;;;;27.15;11.32;;;;;;;5.22;100.00;99088.84;4887686;29;20048;-75
2022/11/22 03:02:15;;;;;;;32.92;12.43;;;;;;;5.17;100.00;99088.28;4887193;29;20040;-75
2022/11/22 03:04:41;;;;;;;32.80;10.73;;;;;;;5.24;100.00;99094.84;4887292;29;20105;-75
2022/11/22 03:07:06;;;;;;;36.38;10.60;;;;;;;5.22;100.00;99095.88;4887306;29;20049;-77
2022/11/22 03:09:32;;;;;;;36.35;11.65;;;;;;;5.22;100.00;99102.03;4887162;29;20057;-75
2022/11/22 03:11:57;;;;;;;32.38;10.10;;;;;;;5.22;100.00;99102.03;4887247;29;20037;-74
2022/11/22 03:14:23;;;;;;;26.33;10.52;;;;;;;5.18;100.00;99104.03;4887120;29;20083;-74
2022/11/22 03:16:49;;;;;;;31.23;10.23;;;;;;;5.23;100.00;99098.44;4887119;29;20048;-75
2022/11/22 03:19:14;;;;;;;30.17;10.75;;;;;;;5.33;100.00;99103.94;4889251;29;20111;-74
2022/11/22 03:21:41;;;;;;;30.73;9.38;;;;;;;5.19;100.00;99103.09;4887253;29;20100;-76
2022/11/22 03:24:08;;;;;;;24.73;8.85;;;;;;;5.20;100.00;99115.34;4891059;29;20557;-75
2022/11/22 03:26:34;;;;;;;30.92;9.38;;;;;;;5.14;100.00;99114.94;4889777;29;20048;-74
2022/11/22 03:29:00;;;;;;;27.02;8.25;;;;;;;5.10;100.00;99111.63;4887366;29;20068;-75
2022/11/22 03:31:26;;;;;;;26.10;8.73;;;;;;;5.08;100.00;99121.47;4891672;29;20186;-75
2022/11/22 03:33:51;;;;;;;28.00;8.30;;;;;;;5.02;100.00;99126.31;4891518;29;20048;-74
2022/11/22 03:36:17;;;;;;;31.52;9.18;;;;;;;4.98;100.00;99128.34;4892337;29;20051;-75
2022/11/22 03:38:42;;;;;;;28.85;7.78;;;;;;;4.93;100.00;99122.53;4892489;29;20048;-75
2022/11/22 03:41:08;;;;;;;27.20;8.05;;;;;;;4.87;100.00;99125.56;4892403;29;20044;-75
2022/11/22 03:43:34;;;;;;;20.08;6.93;;;;;;;4.83;100.00;99124.94;4891988;29;20448;-75
2022/11/22 03:45:59;;;;;;;29.23;7.38;;;;;;;4.82;100.00;99125.91;4887875;29;20045;-75
2022/11/22 03:48:24;;;;;;;27.92;7.30;;;;;;;4.81;100.00;99126.81;4891392;29;20041;-75
2022/11/22 03:50:50;;;;;;;23.27;6.57;;;;;;;4.85;100.00;99138.88;4892991;29;20037;-75
2022/11/22 03:53:15;;;;;;;26.00;5.80;;;;;;;4.82;100.00;99138.22;4893359;29;20052;-75
2022/11/22 03:55:41;;;;;;;29.23;7.68;;;;;;;4.69;100.00;99138.22;4892282;29;20059;-73
2022/11/22 03:58:06;;;;;;;27.63;7.45;;;;;;;4.68;100.00;99141.81;4891406;29;20045;-74
2022/11/22 04:00:33;;;;;;;26.30;6.20;;;;;;;4.76;100.00;99141.28;4893302;29;20040;-74
2022/11/22 04:03:00;;;;;;;27.17;5.93;;;;;;;4.72;100.00;99153.88;4892950;29;20069;-73
2022/11/22 04:05:25;;;;;;;28.00;7.47;;;;;;;4.67;100.00;99150.69;4891449;29;20048;-74
2022/11/22 04:07:54;;;;;;;40.15;6.43;;;;;;;4.58;100.00;99156.56;4891289;29;20072;-73
2022/11/22 04:10:21;;;;;;;23.02;5.30;;;;;;;4.51;100.00;99161.38;4892833;29;20041;-75
2022/11/22 04:12:47;;;;;;;27.15;4.93;;;;;;;4.50;100.00;99164.97;4892102;29;20091;-74
2022/11/22 04:15:12;;;;;;;29.50;5.22;;;;;;;4.49;100.00;99173.00;4891775;29;20056;-75
2022/11/22 04:17:40;;;;;;;30.40;7.68;;;;;;;4.50;100.00;99169.41;4891336;29;20104;-75
2022/11/22 04:22:56;;;;;;;25.20;5.00;;;;;;;4.51;100.00;99171.94;4890938;29;20075;-75
2022/11/22 04:25:26;;;;;;;24.55;5.15;;;;;;;4.50;100.00;99170.25;4878864;29;20565;-75
2022/11/22 04:27:53;;;;;;;25.15;5.30;;;;;;;4.42;100.00;99177.84;4889627;29;20043;-75
2022/11/22 04:30:19;;;;;;;29.30;4.38;;;;;;;4.29;100.00;99182.22;4889603;29;20124;-74
2022/11/22 04:32:44;;;;;;;19.45;4.85;;;;;;;4.41;100.00;99176.13;4890685;29;20037;-75
2022/11/22 04:35:11;;;;;;;30.25;5.38;;;;;;;4.27;100.00;99184.94;4890609;29;20100;-75
2022/11/22 04:37:36;;;;;;;17.20;4.22;;;;;;;4.37;100.00;99190.50;4890584;29;20115;-74
2022/11/22 04:40:03;;;;;;;32.03;5.28;;;;;;;4.28;100.00;99188.44;4890991;29;20049;-75
2022/11/22 04:45:12;;;;;;;26.52;4.50;;;;;;;4.24;100.00;99189.56;4891115;29;20096;-76
2022/11/22 04:53:06;;;;;;;28.85;4.78;;;;;;;3.99;100.00;99180.56;4884074;29;20050;-76
2022/11/22 04:55:31;;;;;;;15.05;3.95;;;;;;;4.04;100.00;99177.66;4889568;29;20052;-73
2022/11/22 04:57:57;;;;;;;24.45;4.70;;;;;;;3.97;100.00;99181.63;4890197;29;20051;-74
2022/11/22 05:00:22;;;;;;;21.67;4.78;;;;;;;4.01;100.00;99183.09;4890269;29;20040;-75
2022/11/22 05:02:48;;;;;;;28.48;4.53;;;;;;;4.07;100.00;99190.66;4887691;29;20040;-75
2022/11/22 05:05:13;;;;;;;25.05;4.68;;;;;;;4.02;100.00;99180.41;4886029;29;20036;-75
2022/11/22 05:07:38;;;;;;;38.97;5.35;;;;;;;3.96;100.00;99180.75;4881571;29;20045;-75
2022/11/22 05:10:04;;;;;;;24.73;4.70;;;;;;;3.96;100.00;99180.75;4883351;29;20044;-75
2022/11/22 05:12:30;;;;;;;30.00;4.88;;;;;;;3.89;100.00;99193.47;4885812;29;20052;-75
2022/11/22 05:14:55;;;;;;;35.63;5.20;;;;;;;3.87;100.00;99192.75;4882788;29;20041;-74
2022/11/22 05:17:20;;;;;;;19.35;5.43;;;;;;;3.86;100.00;99196.31;4888956;29;20091;-74
2022/11/22 05:19:46;;;;;;;24.70;4.38;;;;;;;3.87;100.00;99205.09;4888869;29;20044;-74
2022/11/22 05:22:11;;;;;;;31.55;6.47;;;;;;;3.84;100.00;99202.63;4889286;29;20058;-75
2022/11/22 05:24:37;;;;;;;23.35;4.55;;;;;;;3.94;100.00;99210.81;4889708;29;20049;-74
2022/11/22 05:27:02;;;;;;;35.00;5.22;;;;;;;3.84;100.00;99205.25;4889729;29;20036;-74
2022/11/22 05:29:28;;;;;;;30.98;4.65;;;;;;;3.81;100.00;99210.72;4889909;29;20680;-75
2022/11/22 05:31:53;;;;;;;37.78;5.25;;;;;;;3.82;100.00;99213.28;4876652;29;20048;-75
2022/11/22 05:34:18;;;;;;;35.47;6.28;;;;;;;3.83;100.00;99204.41;4887881;29;20044;-74
2022/11/22 05:36:44;;;;;;;26.02;4.88;;;;;;;3.88;100.00;99214.69;4880189;29;20183;-75
2022/11/22 05:39:09;;;;;;;26.83;5.65;;;;;;;3.86;100.00;99208.63;4889281;29;20055;-75
2022/11/22 05:41:35;;;;;;;21.55;5.55;;;;;;;3.82;100.00;99223.81;4887117;29;20828;-75
2022/11/22 05:44:00;;;;;;;31.48;5.25;;;;;;;3.81;100.00;99214.19;4889211;29;20044;-76
2022/11/22 05:46:28;;;;;;;28.33;4.47;;;;;;;3.76;100.00;99221.53;4888213;29;20044;-74
2022/11/22 05:48:55;;;;;;;27.50;6.38;;;;;;;3.67;100.00;99222.13;4889021;29;20044;-75
2022/11/22 05:51:23;;;;;;;22.98;4.97;;;;;;;3.70;100.00;99223.72;4889093;29;20048;-75
2022/11/22 05:53:49;;;;;;;22.92;5.07;;;;;;;3.52;100.00;99231.81;4888862;29;20107;-75
2022/11/22 05:56:22;;;;;;;29.27;5.68;;;;;;;3.52;100.00;99233.59;4888475;29;20805;-74
2022/11/22 05:58:49;;;;;;;27.17;5.10;;;;;;;3.50;100.00;99231.03;4888628;29;20047;-75
2022/11/22 06:01:17;;;;;;;23.65;4.30;;;;;;;3.56;100.00;99227.19;4883654;29;20050;-75
2022/11/22 06:03:43;;;;;;;38.63;11.02;;;;;;;3.43;100.00;99229.72;4889692;29;20037;-74
2022/11/22 06:06:09;;;;;;;27.08;5.32;;;;;;;3.40;100.00;99223.78;4883684;29;20036;-75
2022/11/22 06:08:38;;;;;;;18.02;4.63;;;;;;;3.41;100.00;99226.31;4889441;29;20860;-75
2022/11/22 06:11:09;;;;;;;36.28;5.32;;;;;;;3.34;100.00;99222.38;4888329;29;20758;-74
2022/11/22 06:13:39;;;;;;;25.98;5.15;;;;;;;3.27;100.00;99218.41;4888190;29;20048;-75
2022/11/22 06:16:06;;;;;;;31.63;5.13;;;;;;;3.34;100.00;99222.38;4877717;29;20072;-74
2022/11/22 06:18:32;;;;;;;32.88;4.72;;;;;;;3.34;100.00;99227.63;4887906;29;20045;-75
2022/11/22 06:20:59;;;;;;;22.25;4.60;;;;;;;3.29;100.00;99237.59;4892070;29;20052;-74
2022/11/22 06:23:25;;;;;;;21.48;4.50;;;;;;;3.24;100.00;99240.50;4894776;29;20059;-75
2022/11/22 06:26:03;;;;;;;25.58;5.55;;;;;;;3.23;100.00;99246.72;4887214;29;20128;-75
2022/11/22 06:28:30;;;;;;;31.02;4.57;;;;;;;3.20;100.00;99252.16;4888302;29;20041;-75
2022/11/22 06:31:03;;;;;;;30.60;5.90;;;;;;;3.09;100.00;99250.16;4871032;29;20040;-75
2022/11/22 06:33:29;;;;;;;23.30;6.03;;;;;;;3.09;100.00;99244.88;4888273;29;20402;-75
2022/11/22 06:36:01;;;;;;;33.60;5.38;;;;;;;3.10;100.00;99245.72;4886873;29;20072;-75
2022/11/22 06:38:26;;;;;;;;;;;;;;;3.11;100.00;99248.28;4888466;29;20051;-75
2022/11/22 06:40:52;;;;;;;27.27;5.97;;;;;;;3.09;100.00;99257.22;4888896;29;19919;-74
2022/11/22 06:43:17;;;;;;;21.30;4.93;;;;;;;2.97;100.00;99253.50;4885010;29;20048;-74
2022/11/22 06:45:43;;;;;;;35.38;7.30;;;;;;;3.03;100.00;99260.19;4878179;29;20041;-75
2022/11/22 06:48:08;;;;;;;28.83;5.55;;;;;;;3.13;100.00;99257.88;4888947;29;20048;-75
2022/11/22 06:50:34;;;;;;;22.48;4.60;;;;;;;3.16;100.00;99255.91;4887626;29;20055;-76
2022/11/22 06:52:59;;;;;;;29.05;7.13;;;;;;;3.04;100.00;99254.84;4887696;29;20100;-76
2022/11/22 06:55:24;;;;;;;19.63;5.00;;;;;;;3.06;100.00;99260.00;4891594;29;20060;-76
2022/11/22 06:57:50;;;;;;;31.08;5.57;;;;;;;3.01;100.00;99251.53;4892476;29;20087;-76
2022/11/22 07:00:16;;;;;;;20.83;5.40;;;;;;;3.05;100.00;99253.06;4902391;29;20045;-76
2022/11/22 07:02:41;;;;;;;23.80;6.75;;;;;;;3.00;100.00;99250.69;4887481;29;20040;-76
2022/11/22 07:05:07;;;;;;;19.92;6.15;;;;;;;3.07;100.00;99264.34;4890012;29;20565;-76
2022/11/22 07:07:32;;;;;;;26.50;6.00;;;;;;;3.10;100.00;99254.47;4888874;29;20406;-76
2022/11/22 07:09:59;;;;;;;34.45;7.43;;;;;;;3.03;100.00;99260.19;4888448;29;20044;-75
2022/11/22 07:12:25;;;;;;;29.23;6.00;;;;;;;3.05;100.00;99259.16;4891889;29;20048;-76
2022/11/22 07:14:50;;;;;;;33.95;5.72;;;;;;;3.04;100.00;99264.53;4892152;29;20044;-76
2022/11/22 07:17:15;;;;;;;21.35;5.65;;;;;;;3.02;100.00;99272.53;4890758;29;20037;-76
2022/11/22 07:19:41;;;;;;;36.80;5.97;;;;;;;3.06;100.00;99268.78;4892149;29;20518;-76
2022/11/22 07:22:06;;;;;;;24.15;5.68;;;;;;;3.14;100.00;99267.47;4889374;29;20054;-75
2022/11/22 07:24:32;;;;;;;34.92;6.72;;;;;;;3.16;100.00;99273.50;4889595;29;20052;-76
2022/11/22 07:26:57;;;;;;;37.13;7.05;;;;;;;3.15;100.00;99274.44;4884122;29;20040;-76
2022/11/22 07:29:23;;;;;;;28.35;5.35;;;;;;;3.16;100.00;99271.69;4890966;29;20481;-75
2022/11/22 07:31:48;;;;;;;28.33;6.55;;;;;;;3.16;100.00;99274.34;4895777;29;20139;-75
2022/11/22 07:34:14;;;;;;;24.42;5.82;;;;;;;3.21;100.00;99277.53;4874709;29;20041;-74
2022/11/22 07:36:39;;;;;;;24.83;5.15;;;;;;;3.26;100.00;99283.44;4891533;29;20048;-75
2022/11/22 07:39:05;;;;;;;23.63;4.50;;;;;;;3.25;100.00;99286.97;4891418;29;20119;-76
2022/11/22 07:41:30;;;;;;;28.80;5.78;;;;;;;3.31;100.00;99286.63;4891335;29;20052;-76
2022/11/22 07:43:55;;;;;;;25.02;5.43;;;;;;;3.35;100.00;99295.19;4891585;29;20051;-76
2022/11/22 07:46:28;;;;;;;22.08;5.35;;;;;;;3.42;100.00;99295.69;4892500;29;20044;-76
2022/11/22 07:48:54;;;;;;;;;;;;;;;3.51;100.00;99297.75;4895031;29;20044;-76
2022/11/22 07:51:19;;;;;;;21.58;5.50;;;;;;;3.60;100.00;99302.50;4893374;29;19923;-75
2022/11/22 07:53:45;;;;;;;30.42;6.03;;;;;;;3.67;100.00;99301.19;4893126;29;20852;-76
2022/11/22 07:56:10;;;;;;;24.15;5.10;;;;;;;3.71;100.00;99302.69;4894185;29;20410;-76
2022/11/22 07:58:36;;;;;;;24.92;5.78;;;;;;;3.76;100.00;99305.06;4892021;29;20104;-75
2022/11/22 08:01:10;;;;;;;22.40;6.22;;;;;;;4.05;100.00;99305.94;4881616;29;20802;-76
2022/11/22 08:03:36;;;;;;;30.90;5.13;;;;;;;4.11;100.00;99308.19;4892684;29;20076;-76
2022/11/22 08:06:03;;;;;;;31.23;6.57;;;;;;;4.21;100.00;99311.09;4893645;29;20072;-76
2022/11/22 08:08:29;;;;;;;26.70;5.50;;;;;;;4.33;100.00;99297.16;4893692;29;20056;-76
2022/11/22 08:10:54;;;;;;;20.40;5.13;;;;;;;4.43;100.00;99302.72;4893622;29;20044;-76
2022/11/22 08:13:20;;;;;;;24.08;6.85;;;;;;;4.54;100.00;99297.59;4893617;29;20610;-76
2022/11/22 08:15:47;;;;;;;29.48;7.18;;;;;;;4.58;100.00;99301.75;4893654;29;20073;-76
2022/11/22 08:18:13;;;;;;;29.38;6.18;;;;;;;4.64;100.00;99301.34;4893852;29;20104;-75
2022/11/22 08:20:38;;;;;;;34.53;6.72;;;;;;;4.74;100.00;99299.81;4893347;29;20357;-76
2022/11/22 08:23:03;;;;;;;33.55;5.05;;;;;;;4.81;100.00;99300.25;4892912;29;20044;-76
2022/11/22 08:25:29;;;;;;;19.10;4.93;;;;;;;4.83;100.00;99293.09;4891267;29;20044;-76
2022/11/22 08:27:55;;;;;;;22.98;5.15;;;;;;;4.87;100.00;99290.16;4892072;29;20041;-75
2022/11/22 08:30:20;;;;;;;30.52;5.25;;;;;;;4.96;100.00;99296.63;4892391;29;20116;-75
2022/11/22 08:32:46;;;;;;;16.52;4.20;;;;;;;5.01;100.00;99301.59;4886662;29;20045;-76
2022/11/22 08:35:11;;;;;;;28.58;6.63;;;;;;;5.04;100.00;99307.53;4891691;29;20079;-76
2022/11/22 08:37:36;;;;;;;20.90;5.20;;;;;;;5.05;100.00;99303.09;4891190;29;20040;-76
2022/11/22 08:40:02;;;;;;;13.30;4.13;;;;;;;5.10;100.00;99303.66;4890874;29;20045;-75
2022/11/22 08:42:28;;;;;;;27.85;5.53;;;;;;;5.12;100.00;99312.31;4889672;29;20051;-76
2022/11/22 08:44:54;;;;;;;20.48;4.22;;;;;;;5.20;100.00;99315.31;4891001;29;20107;-75
2022/11/22 08:47:20;;;;;;;23.98;4.68;;;;;;;5.21;100.00;99319.63;4890007;29;20048;-76
2022/11/22 08:49:45;;;;;;;22.75;3.80;;;;;;;5.26;100.00;99316.69;4890466;29;20036;-76
2022/11/22 08:52:10;;;;;;;15.95;3.50;;;;;;;5.26;100.00;99319.34;4890386;29;20044;-76
2022/11/22 08:54:36;;;;;;;19.17;6.28;;;;;;;5.24;100.00;99308.88;4878087;29;20045;-76
2022/11/22 08:57:02;;;;;;;15.05;3.22;;;;;;;5.35;100.00;99318.75;4871783;29;20040;-76
2022/11/22 08:59:27;;;;;;;18.48;4.78;;;;;;;5.41;100.00;99315.69;4880544;29;20120;-76
2022/11/22 09:01:52;;;;;;;15.25;3.60;;;;;;;5.43;100.00;99319.94;4890143;29;20497;-76
2022/11/22 09:04:18;;;;;;;16.92;4.60;;;;;;;5.50;100.00;99314.22;4890885;29;20036;-76
2022/11/22 09:06:43;;;;;;;12.07;2.92;;;;;;;5.48;100.00;99313.50;4890220;29;20056;-76
2022/11/22 09:09:09;;;;;;;14.88;3.53;;;;;;;5.68;100.00;99320.94;4872628;29;20052;-76
2022/11/22 09:11:34;;;;;;;13.85;3.05;;;;;;;5.80;100.00;99328.00;4888996;29;20045;-76
2022/11/22 09:14:00;;;;;;;12.88;2.40;;;;;;;5.70;100.00;99322.50;4887772;29;20525;-76
2022/11/22 09:16:27;;;;;;;12.25;2.95;;;;;;;5.68;100.00;99329.72;4888915;29;20044;-76
2022/11/22 09:18:53;;;;;;;23.27;3.65;;;;;;;5.80;100.00;99328.00;4877573;29;20060;-76
2022/11/22 09:21:19;;;;;;;12.43;3.47;;;;;;;5.90;100.00;99334.38;4890119;29;20040;-77
2022/11/22 09:23:47;;;;;;;13.65;3.13;;;;;;;6.06;100.00;99333.34;4889053;29;20123;-77
2022/11/22 09:26:16;;;;;;;18.52;3.15;;;;;;;5.92;100.00;99339.59;4889899;29;20076;-76
2022/11/22 09:28:41;;;;;;;5.68;2.33;;;;;;;5.93;100.00;99342.16;4889381;29;20052;-76
2022/11/22 09:31:18;;;;;;;17.30;3.00;;;;;;;5.97;100.00;99350.69;4874432;29;20128;-76
2022/11/22 09:33:44;;;;;;;11.95;2.80;;;;;;;6.04;100.00;99346.69;4890048;29;20075;-76
2022/11/22 09:36:12;;;;;;;9.80;3.38;;;;;;;6.03;100.00;99350.31;4885580;29;20605;-77
2022/11/22 09:38:38;;;;;;;15.70;3.17;;;;;;;6.01;100.00;99340.75;4889539;29;20041;-77
2022/11/22 09:41:24;;;;;;;15.52;2.97;;;;;;;5.99;100.00;99340.88;4889570;29;20047;-77
2022/11/22 09:43:55;;;;;;;12.82;3.20;;;;;;;5.94;100.00;99346.47;4877376;29;20040;-77
2022/11/22 09:46:42;;;;;;;8.88;2.78;;;;;;;6.00;100.00;99350.50;4889469;29;20064;-76
2022/11/22 09:49:29;;;;;;;14.13;2.50;;;;;;;6.09;100.00;99341.94;4888962;29;20040;-76
2022/11/22 09:52:31;;;;;;;15.55;3.08;;;;;;;6.22;100.00;99340.13;4885910;29;20272;-76
2022/11/22 09:55:00;;;;;;;8.75;2.25;;;;;;;6.22;100.00;99345.44;4863741;29;20057;-77
2022/11/22 09:57:43;;;;;;;11.63;3.35;;;;;;;6.30;100.00;99336.09;4876115;29;20459;-76
2022/11/22 10:00:20;;;;;;;13.38;2.90;;;;;;;6.43;100.00;99336.94;4887946;29;20044;-76
2022/11/22 10:03:04;;;;;;;11.43;3.08;;;;;;;6.45;100.00;99335.88;4877504;29;20063;-76
2022/11/22 10:05:46;;;;;;;16.35;2.67;;;;;;;6.43;100.00;99336.94;4886157;29;20100;-77
2022/11/22 10:08:23;;;;;;;19.60;2.53;;;;;;;6.40;100.00;99342.44;4885860;29;20496;-77
2022/11/22 10:10:52;;;;;;;13.35;2.42;;;;;;;6.37;100.00;99338.19;4887773;29;20051;-75
2022/11/22 10:13:33;;;;;;;7.18;1.85;;;;;;;6.53;100.00;99345.09;4888804;29;20465;-76
2022/11/22 10:16:03;;;;;;;13.38;2.20;;;;;;;6.68;100.00;99338.69;4887311;29;20044;-76
2022/11/22 10:18:49;;;;;;;7.57;2.60;;;;;;;6.84;100.00;99330.50;4887554;29;20036;-76
2022/11/22 10:21:14;;;;;;;7.32;2.47;;;;;;;6.94;100.00;99329.72;4874655;29;20052;-76
2022/11/22 10:23:41;;;;;;;8.88;2.65;;;;;;;6.91;100.00;99323.78;4869982;29;20044;-76
2022/11/22 10:26:31;;;;;;;8.20;2.45;;;;;;;6.93;100.00;99321.88;4886881;29;20041;-76
2022/11/22 10:29:03;;;;;;;13.35;2.30;;;;;;;6.89;100.00;99323.06;4886507;29;20048;-76
2022/11/22 10:31:39;;;;;;;15.80;2.83;;;;;;;7.05;100.00;99320.13;4872194;29;20057;-76
2022/11/22 10:34:36;;;;;;;19.70;3.10;;;;;;;7.10;100.00;99318.81;4886125;29;20055;-76
2022/11/22 10:37:17;;;;;;;14.32;2.10;;;;;;;7.05;100.00;99322.78;4874063;29;20041;-76
2022/11/22 10:40:01;;;;;;;8.73;2.35;;;;;;;7.11;100.00;99317.00;4885532;29;20602;-77
2022/11/22 10:42:45;;;;;;;10.77;2.03;;;;;;;7.18;100.00;99312.97;4887080;29;20128;-76
2022/11/22 10:45:35;;;;;;;9.93;2.50;;;;;;;7.09;100.00;99318.94;4886550;29;20041;-76
2022/11/22 10:48:34;;;;;;;16.42;3.15;;;;;;;7.27;100.00;99318.41;4887254;29;20043;-76
2022/11/22 10:51:12;;;;;;;7.60;1.67;;;;;;;7.13;100.00;99305.34;4887534;29;20514;-76
2022/11/22 10:53:40;;;;;;;6.70;1.67;;;;;;;7.37;100.00;99304.47;4887211;29;20040;-76
2022/11/22 10:56:11;;;;;;;10.32;1.85;;;;;;;7.36;100.00;99300.97;4887204;29;20037;-77
2022/11/22 10:58:52;;;;;;;5.18;1.63;;;;;;;7.33;100.00;99300.34;4886965;29;20076;-76
2022/11/22 11:01:41;;;;;;;8.30;1.50;;;;;;;7.39;100.00;99294.63;4886933;29;20394;-76
2022/11/22 11:04:10;;;;;;;5.80;2.30;;;;;;;7.52;100.00;99290.91;4886828;29;20315;-76
2022/11/22 11:06:47;;;;;;;8.85;1.95;;;;;;;7.52;100.00;99290.91;4887015;29;20036;-76
2022/11/22 11:09:33;;;;;;;9.35;2.22;;;;;;;7.53;100.00;99286.47;4886355;29;20045;-76
2022/11/22 11:12:04;;;;;;;5.07;1.55;;;;;;;7.49;100.00;99287.66;4885117;29;20056;-76
2022/11/22 11:14:35;;;;;;;12.35;2.55;;;;;;;7.55;100.00;99279.22;4885475;29;20049;-76
2022/11/22 11:17:01;;;;;;;5.97;1.67;;;;;;;7.43;100.00;99275.72;4887533;29;20441;-76
2022/11/22 11:19:37;;;;;;;10.57;1.50;;;;;;;7.49;100.00;99285.84;4886942;29;20067;-74
2022/11/22 11:22:05;;;;;;;7.53;2.25;;;;;;;7.56;100.00;99280.06;4885284;29;20052;-76
2022/11/22 11:24:31;;;;;;;14.68;2.20;;;;;;;7.56;100.00;99280.06;4887312;29;20063;-76
2022/11/22 11:26:59;;;;;;;8.77;2.00;;;;;;;7.49;100.00;99280.53;4887302;29;20036;-76
2022/11/22 11:29:41;;;;;;;5.22;1.55;;;;;;;7.40;100.00;99294.50;4882422;29;20073;-76
2022/11/22 11:32:12;;;;;;;5.20;1.70;;;;;;;7.30;100.00;99282.03;4893686;29;20040;-76
2022/11/22 11:34:40;;;;;;;6.32;1.45;;;;;;;7.25;100.00;99274.44;4885212;29;20404;-76
2022/11/22 11:37:17;;;;;;;6.18;1.50;;;;;;;7.35;100.00;99279.91;4886937;29;20040;-76
2022/11/22 11:39:45;;;;;;;5.03;1.73;;;;;;;7.41;100.00;99277.63;4887834;29;20052;-76
2022/11/22 11:42:24;;;;;;;11.43;1.50;;;;;;;7.52;100.00;99277.63;4890267;29;20549;-76
2022/11/22 11:44:49;;;;;;;6.15;1.70;;;;;;;7.59;100.00;99270.09;4890222;29;20190;-76